sensor_id;sensor_type;location;lat;lon;timestamp;P1;durP1;ratioP1;P2;durP2;ratioP2
4595;SDS011;2310;49.978;8.742;2023-03-31T00:02:24;5.93;;;2.33;;
4595;SDS011;2310;49.978;8.742;2023-03-31T00:06:26;7.17;;;2.40;;
4595;SDS011;2310;49.978;8.742;2023-03-31T00:10:31;5.50;;;2.40;;
4595;SDS011;2310;49.978;8.742;2023-03-31T00:14:33;5.80;;;1.90;;
4595;SDS011;2310;49.978;8.742;2023-03-31T00:18:35;8.13;;;2.80;;
4595;SDS011;2310;49.978;8.742;2023-03-31T00:22:37;4.67;;;1.60;;
4595;SDS011;2310;49.978;8.742;2023-03-31T00:26:40;4.23;;;2.00;;
4595;SDS011;2310;49.978;8.742;2023-03-31T00:30:42;5.00;;;1.80;;
4595;SDS011;2310;49.978;8.742;2023-03-31T00:34:44;7.43;;;3.13;;
4595;SDS011;2310;49.978;8.742;2023-03-31T00:38:46;7.27;;;2.53;;
4595;SDS011;2310;49.978;8.742;2023-03-31T00:42:48;4.70;;;2.30;;
4595;SDS011;2310;49.978;8.742;2023-03-31T00:50:55;5.13;;;2.37;;
4595;SDS011;2310;49.978;8.742;2023-03-31T00:54:59;6.73;;;2.50;;
4595;SDS011;2310;49.978;8.742;2023-03-31T00:59:07;5.97;;;2.23;;
4595;SDS011;2310;49.978;8.742;2023-03-31T01:03:11;7.57;;;2.70;;
4595;SDS011;2310;49.978;8.742;2023-03-31T01:07:15;7.20;;;2.50;;
4595;SDS011;2310;49.978;8.742;2023-03-31T01:11:19;9.30;;;3.30;;
4595;SDS011;2310;49.978;8.742;2023-03-31T01:15:21;7.37;;;3.50;;
4595;SDS011;2310;49.978;8.742;2023-03-31T01:19:30;8.37;;;2.87;;
4595;SDS011;2310;49.978;8.742;2023-03-31T01:41:28;4.57;;;2.33;;
4595;SDS011;2310;49.978;8.742;2023-03-31T01:58:38;7.43;;;2.27;;
4595;SDS011;2310;49.978;8.742;2023-03-31T02:02:49;7.57;;;3.03;;
4595;SDS011;2310;49.978;8.742;2023-03-31T02:07:11;5.33;;;2.23;;
4595;SDS011;2310;49.978;8.742;2023-03-31T02:11:13;5.63;;;2.97;;
4595;SDS011;2310;49.978;8.742;2023-03-31T02:15:18;9.63;;;2.67;;
4595;SDS011;2310;49.978;8.742;2023-03-31T02:19:21;8.10;;;2.70;;
4595;SDS011;2310;49.978;8.742;2023-03-31T02:23:24;7.07;;;2.90;;
4595;SDS011;2310;49.978;8.742;2023-03-31T02:27:34;7.90;;;2.80;;
4595;SDS011;2310;49.978;8.742;2023-03-31T02:31:40;7.73;;;2.50;;
4595;SDS011;2310;49.978;8.742;2023-03-31T02:35:48;8.50;;;3.13;;
4595;SDS011;2310;49.978;8.742;2023-03-31T02:39:49;5.53;;;2.80;;
4595;SDS011;2310;49.978;8.742;2023-03-31T02:43:53;6.03;;;2.47;;
4595;SDS011;2310;49.978;8.742;2023-03-31T02:47:54;9.80;;;3.20;;
4595;SDS011;2310;49.978;8.742;2023-03-31T02:52:09;9.33;;;2.90;;
4595;SDS011;2310;49.978;8.742;2023-03-31T02:56:29;8.83;;;2.70;;
4595;SDS011;2310;49.978;8.742;2023-03-31T03:05:10;6.97;;;3.00;;
4595;SDS011;2310;49.978;8.742;2023-03-31T03:18:12;10.80;;;3.50;;
4595;SDS011;2310;49.978;8.742;2023-03-31T03:22:14;9.20;;;3.07;;
4595;SDS011;2310;49.978;8.742;2023-03-31T03:26:15;5.90;;;2.67;;
4595;SDS011;2310;49.978;8.742;2023-03-31T03:30:18;9.03;;;3.23;;
4595;SDS011;2310;49.978;8.742;2023-03-31T03:34:19;9.17;;;3.47;;
4595;SDS011;2310;49.978;8.742;2023-03-31T03:38:20;10.57;;;3.10;;
4595;SDS011;2310;49.978;8.742;2023-03-31T03:42:21;5.47;;;2.60;;
4595;SDS011;2310;49.978;8.742;2023-03-31T03:46:23;11.47;;;3.50;;
4595;SDS011;2310;49.978;8.742;2023-03-31T03:50:24;5.67;;;2.70;;
4595;SDS011;2310;49.978;8.742;2023-03-31T03:54:25;6.10;;;2.30;;
4595;SDS011;2310;49.978;8.742;2023-03-31T03:58:26;8.53;;;2.83;;
4595;SDS011;2310;49.978;8.742;2023-03-31T04:02:27;9.13;;;3.47;;
4595;SDS011;2310;49.978;8.742;2023-03-31T04:06:29;9.30;;;3.30;;
4595;SDS011;2310;49.978;8.742;2023-03-31T04:10:30;10.97;;;4.13;;
4595;SDS011;2310;49.978;8.742;2023-03-31T04:14:32;9.97;;;3.07;;
4595;SDS011;2310;49.978;8.742;2023-03-31T04:18:33;6.67;;;2.60;;
4595;SDS011;2310;49.978;8.742;2023-03-31T04:22:36;7.50;;;3.00;;
4595;SDS011;2310;49.978;8.742;2023-03-31T04:26:41;12.93;;;3.27;;
4595;SDS011;2310;49.978;8.742;2023-03-31T04:30:42;7.50;;;3.70;;
4595;SDS011;2310;49.978;8.742;2023-03-31T04:34:43;5.80;;;2.50;;
4595;SDS011;2310;49.978;8.742;2023-03-31T04:38:47;7.33;;;2.70;;
4595;SDS011;2310;49.978;8.742;2023-03-31T04:42:54;9.53;;;2.70;;
4595;SDS011;2310;49.978;8.742;2023-03-31T04:46:55;6.83;;;2.30;;
4595;SDS011;2310;49.978;8.742;2023-03-31T04:50:58;8.27;;;2.87;;
4595;SDS011;2310;49.978;8.742;2023-03-31T04:54:59;5.27;;;2.00;;
4595;SDS011;2310;49.978;8.742;2023-03-31T04:59:00;8.00;;;3.07;;
4595;SDS011;2310;49.978;8.742;2023-03-31T05:03:04;7.27;;;2.87;;
4595;SDS011;2310;49.978;8.742;2023-03-31T05:07:06;8.23;;;2.60;;
4595;SDS011;2310;49.978;8.742;2023-03-31T05:11:07;6.77;;;2.80;;
4595;SDS011;2310;49.978;8.742;2023-03-31T05:15:09;8.37;;;3.43;;
4595;SDS011;2310;49.978;8.742;2023-03-31T05:19:11;7.50;;;2.80;;
4595;SDS011;2310;49.978;8.742;2023-03-31T05:23:12;10.13;;;2.77;;
4595;SDS011;2310;49.978;8.742;2023-03-31T05:27:14;8.70;;;4.20;;
4595;SDS011;2310;49.978;8.742;2023-03-31T05:31:15;9.20;;;3.83;;
4595;SDS011;2310;49.978;8.742;2023-03-31T05:35:17;9.23;;;3.00;;
4595;SDS011;2310;49.978;8.742;2023-03-31T05:39:18;6.17;;;2.90;;
4595;SDS011;2310;49.978;8.742;2023-03-31T05:43:19;6.03;;;2.47;;
4595;SDS011;2310;49.978;8.742;2023-03-31T05:47:20;7.13;;;3.50;;
4595;SDS011;2310;49.978;8.742;2023-03-31T05:51:23;12.27;;;3.53;;
4595;SDS011;2310;49.978;8.742;2023-03-31T05:55:24;6.70;;;3.20;;
4595;SDS011;2310;49.978;8.742;2023-03-31T05:59:25;7.80;;;3.83;;
4595;SDS011;2310;49.978;8.742;2023-03-31T06:03:27;9.40;;;3.43;;
4595;SDS011;2310;49.978;8.742;2023-03-31T06:07:28;12.10;;;3.83;;
4595;SDS011;2310;49.978;8.742;2023-03-31T06:11:29;10.60;;;3.63;;
4595;SDS011;2310;49.978;8.742;2023-03-31T06:15:31;6.20;;;3.50;;
4595;SDS011;2310;49.978;8.742;2023-03-31T06:19:32;8.87;;;4.23;;
4595;SDS011;2310;49.978;8.742;2023-03-31T06:23:34;11.70;;;4.80;;
4595;SDS011;2310;49.978;8.742;2023-03-31T06:27:35;10.57;;;3.83;;
4595;SDS011;2310;49.978;8.742;2023-03-31T06:31:36;7.23;;;3.90;;
4595;SDS011;2310;49.978;8.742;2023-03-31T06:35:38;7.20;;;3.93;;
4595;SDS011;2310;49.978;8.742;2023-03-31T06:39:39;6.20;;;4.30;;
4595;SDS011;2310;49.978;8.742;2023-03-31T06:43:41;10.23;;;4.87;;
4595;SDS011;2310;49.978;8.742;2023-03-31T06:47:42;8.10;;;4.57;;
4595;SDS011;2310;49.978;8.742;2023-03-31T06:51:44;10.30;;;5.20;;
4595;SDS011;2310;49.978;8.742;2023-03-31T06:55:46;9.73;;;5.93;;
4595;SDS011;2310;49.978;8.742;2023-03-31T06:59:47;10.07;;;5.03;;
4595;SDS011;2310;49.978;8.742;2023-03-31T07:03:49;7.07;;;5.30;;
4595;SDS011;2310;49.978;8.742;2023-03-31T07:07:51;23.73;;;17.53;;
4595;SDS011;2310;49.978;8.742;2023-03-31T07:11:54;10.23;;;5.60;;
4595;SDS011;2310;49.978;8.742;2023-03-31T07:15:57;8.27;;;5.87;;
4595;SDS011;2310;49.978;8.742;2023-03-31T07:19:58;10.77;;;5.60;;
4595;SDS011;2310;49.978;8.742;2023-03-31T07:24:00;10.93;;;6.10;;
4595;SDS011;2310;49.978;8.742;2023-03-31T07:28:02;8.40;;;5.57;;
4595;SDS011;2310;49.978;8.742;2023-03-31T07:32:04;8.70;;;5.90;;
4595;SDS011;2310;49.978;8.742;2023-03-31T07:36:06;10.83;;;5.60;;
4595;SDS011;2310;49.978;8.742;2023-03-31T07:40:11;13.50;;;7.20;;
4595;SDS011;2310;49.978;8.742;2023-03-31T07:44:15;10.33;;;6.50;;
4595;SDS011;2310;49.978;8.742;2023-03-31T07:48:17;13.40;;;8.73;;
4595;SDS011;2310;49.978;8.742;2023-03-31T07:52:18;8.80;;;6.67;;
4595;SDS011;2310;49.978;8.742;2023-03-31T07:56:20;7.93;;;7.13;;
4595;SDS011;2310;49.978;8.742;2023-03-31T08:00:23;7.90;;;6.50;;
4595;SDS011;2310;49.978;8.742;2023-03-31T08:04:25;9.37;;;6.43;;
4595;SDS011;2310;49.978;8.742;2023-03-31T08:08:26;9.07;;;7.43;;
4595;SDS011;2310;49.978;8.742;2023-03-31T08:12:27;11.27;;;6.93;;
4595;SDS011;2310;49.978;8.742;2023-03-31T08:16:28;9.10;;;7.23;;
4595;SDS011;2310;49.978;8.742;2023-03-31T08:20:30;8.13;;;6.17;;
4595;SDS011;2310;49.978;8.742;2023-03-31T08:24:32;7.70;;;6.40;;
4595;SDS011;2310;49.978;8.742;2023-03-31T08:28:34;9.37;;;5.40;;
4595;SDS011;2310;49.978;8.742;2023-03-31T08:32:35;5.83;;;3.53;;
4595;SDS011;2310;49.978;8.742;2023-03-31T08:36:36;6.90;;;4.17;;
4595;SDS011;2310;49.978;8.742;2023-03-31T08:40:37;5.90;;;3.40;;
4595;SDS011;2310;49.978;8.742;2023-03-31T08:44:47;7.53;;;4.40;;
4595;SDS011;2310;49.978;8.742;2023-03-31T08:48:50;4.80;;;3.73;;
4595;SDS011;2310;49.978;8.742;2023-03-31T08:52:58;6.97;;;3.40;;
4595;SDS011;2310;49.978;8.742;2023-03-31T08:57:09;4.80;;;3.00;;
4595;SDS011;2310;49.978;8.742;2023-03-31T09:05:50;5.87;;;3.40;;
4595;SDS011;2310;49.978;8.742;2023-03-31T09:18:26;4.60;;;3.70;;
4595;SDS011;2310;49.978;8.742;2023-03-31T09:22:31;5.70;;;3.73;;
4595;SDS011;2310;49.978;8.742;2023-03-31T09:26:37;7.67;;;3.50;;
4595;SDS011;2310;49.978;8.742;2023-03-31T09:30:41;6.90;;;4.50;;
4595;SDS011;2310;49.978;8.742;2023-03-31T09:34:43;5.67;;;4.67;;
4595;SDS011;2310;49.978;8.742;2023-03-31T09:38:46;5.20;;;3.30;;
4595;SDS011;2310;49.978;8.742;2023-03-31T09:42:50;7.53;;;3.77;;
4595;SDS011;2310;49.978;8.742;2023-03-31T09:46:53;5.73;;;3.80;;
4595;SDS011;2310;49.978;8.742;2023-03-31T09:50:57;7.40;;;4.00;;
4595;SDS011;2310;49.978;8.742;2023-03-31T09:55:02;5.07;;;3.20;;
4595;SDS011;2310;49.978;8.742;2023-03-31T09:59:18;5.73;;;3.60;;
4595;SDS011;2310;49.978;8.742;2023-03-31T10:03:25;7.07;;;4.20;;
4595;SDS011;2310;49.978;8.742;2023-03-31T10:07:28;10.40;;;4.10;;
4595;SDS011;2310;49.978;8.742;2023-03-31T10:11:30;6.43;;;3.40;;
4595;SDS011;2310;49.978;8.742;2023-03-31T10:15:31;4.60;;;3.47;;
4595;SDS011;2310;49.978;8.742;2023-03-31T10:19:36;6.10;;;3.07;;
4595;SDS011;2310;49.978;8.742;2023-03-31T10:23:38;7.43;;;4.17;;
4595;SDS011;2310;49.978;8.742;2023-03-31T10:27:44;3.40;;;1.63;;
4595;SDS011;2310;49.978;8.742;2023-03-31T10:31:51;4.40;;;2.50;;
4595;SDS011;2310;49.978;8.742;2023-03-31T10:35:57;6.77;;;1.90;;
4595;SDS011;2310;49.978;8.742;2023-03-31T10:40:02;8.80;;;1.97;;
4595;SDS011;2310;49.978;8.742;2023-03-31T10:44:31;5.20;;;2.47;;
4595;SDS011;2310;49.978;8.742;2023-03-31T10:48:38;3.90;;;1.40;;
4595;SDS011;2310;49.978;8.742;2023-03-31T10:52:45;4.47;;;1.80;;
4595;SDS011;2310;49.978;8.742;2023-03-31T10:56:52;3.70;;;1.40;;
4595;SDS011;2310;49.978;8.742;2023-03-31T11:01:05;5.13;;;2.27;;
4595;SDS011;2310;49.978;8.742;2023-03-31T11:05:13;5.50;;;3.10;;
4595;SDS011;2310;49.978;8.742;2023-03-31T11:13:44;6.17;;;1.60;;
4595;SDS011;2310;49.978;8.742;2023-03-31T11:21:57;6.17;;;2.50;;
4595;SDS011;2310;49.978;8.742;2023-03-31T11:26:17;5.80;;;3.60;;
4595;SDS011;2310;49.978;8.742;2023-03-31T11:30:42;7.43;;;4.40;;
4595;SDS011;2310;49.978;8.742;2023-03-31T11:43:27;6.10;;;3.37;;
4595;SDS011;2310;49.978;8.742;2023-03-31T11:47:31;9.23;;;3.60;;
4595;SDS011;2310;49.978;8.742;2023-03-31T11:51:47;7.30;;;2.93;;
4595;SDS011;2310;49.978;8.742;2023-03-31T11:55:52;8.80;;;3.37;;
4595;SDS011;2310;49.978;8.742;2023-03-31T11:59:56;9.63;;;4.10;;
4595;SDS011;2310;49.978;8.742;2023-03-31T12:04:44;8.37;;;3.40;;
4595;SDS011;2310;49.978;8.742;2023-03-31T12:08:16;8.83;;;3.10;;
4595;SDS011;2310;49.978;8.742;2023-03-31T12:12:23;9.50;;;3.50;;
4595;SDS011;2310;49.978;8.742;2023-03-31T12:16:44;8.13;;;3.30;;
4595;SDS011;2310;49.978;8.742;2023-03-31T12:20:51;9.57;;;2.67;;
4595;SDS011;2310;49.978;8.742;2023-03-31T12:24:51;8.93;;;2.70;;
4595;SDS011;2310;49.978;8.742;2023-03-31T12:28:55;9.50;;;3.40;;
4595;SDS011;2310;49.978;8.742;2023-03-31T12:46:17;9.27;;;2.97;;
4595;SDS011;2310;49.978;8.742;2023-03-31T12:54:39;10.03;;;2.47;;
4595;SDS011;2310;49.978;8.742;2023-03-31T12:58:45;6.57;;;2.40;;
4595;SDS011;2310;49.978;8.742;2023-03-31T13:02:48;5.60;;;2.20;;
4595;SDS011;2310;49.978;8.742;2023-03-31T13:06:55;7.20;;;2.37;;
4595;SDS011;2310;49.978;8.742;2023-03-31T13:10:56;5.90;;;2.37;;
4595;SDS011;2310;49.978;8.742;2023-03-31T13:14:59;7.13;;;2.80;;
4595;SDS011;2310;49.978;8.742;2023-03-31T13:19:04;5.33;;;2.30;;
4595;SDS011;2310;49.978;8.742;2023-03-31T13:27:32;4.50;;;2.13;;
4595;SDS011;2310;49.978;8.742;2023-03-31T13:44:55;2.60;;;0.63;;
4595;SDS011;2310;49.978;8.742;2023-03-31T13:57:23;3.07;;;0.60;;
4595;SDS011;2310;49.978;8.742;2023-03-31T14:01:32;2.37;;;0.40;;
4595;SDS011;2310;49.978;8.742;2023-03-31T14:05:39;3.33;;;1.00;;
4595;SDS011;2310;49.978;8.742;2023-03-31T14:09:49;2.70;;;0.70;;
4595;SDS011;2310;49.978;8.742;2023-03-31T14:14:00;3.07;;;0.83;;
4595;SDS011;2310;49.978;8.742;2023-03-31T14:18:04;10.33;;;1.67;;
4595;SDS011;2310;49.978;8.742;2023-03-31T14:22:14;2.07;;;0.50;;
4595;SDS011;2310;49.978;8.742;2023-03-31T14:35:10;3.30;;;1.10;;
4595;SDS011;2310;49.978;8.742;2023-03-31T14:39:10;3.97;;;0.80;;
4595;SDS011;2310;49.978;8.742;2023-03-31T14:43:19;3.33;;;1.13;;
4595;SDS011;2310;49.978;8.742;2023-03-31T14:47:26;4.57;;;1.40;;
4595;SDS011;2310;49.978;8.742;2023-03-31T14:51:29;2.80;;;1.17;;
4595;SDS011;2310;49.978;8.742;2023-03-31T14:55:31;6.67;;;4.90;;
4595;SDS011;2310;49.978;8.742;2023-03-31T14:59:36;3.33;;;1.23;;
4595;SDS011;2310;49.978;8.742;2023-03-31T15:03:39;4.77;;;1.47;;
4595;SDS011;2310;49.978;8.742;2023-03-31T15:07:42;3.60;;;1.23;;
4595;SDS011;2310;49.978;8.742;2023-03-31T15:11:45;3.77;;;1.50;;
4595;SDS011;2310;49.978;8.742;2023-03-31T15:15:47;4.37;;;1.83;;
4595;SDS011;2310;49.978;8.742;2023-03-31T15:19:56;3.60;;;1.60;;
4595;SDS011;2310;49.978;8.742;2023-03-31T15:23:59;4.43;;;1.93;;
4595;SDS011;2310;49.978;8.742;2023-03-31T15:28:02;5.13;;;2.03;;
4595;SDS011;2310;49.978;8.742;2023-03-31T15:32:07;5.73;;;2.20;;
4595;SDS011;2310;49.978;8.742;2023-03-31T15:36:13;5.53;;;2.27;;
4595;SDS011;2310;49.978;8.742;2023-03-31T15:40:21;7.17;;;1.93;;
4595;SDS011;2310;49.978;8.742;2023-03-31T15:44:38;4.67;;;1.50;;
4595;SDS011;2310;49.978;8.742;2023-03-31T15:48:55;3.10;;;1.40;;
4595;SDS011;2310;49.978;8.742;2023-03-31T15:52:55;6.93;;;2.33;;
4595;SDS011;2310;49.978;8.742;2023-03-31T15:56:58;4.30;;;1.50;;
4595;SDS011;2310;49.978;8.742;2023-03-31T16:01:02;3.10;;;0.70;;
4595;SDS011;2310;49.978;8.742;2023-03-31T16:05:06;4.60;;;1.20;;
4595;SDS011;2310;49.978;8.742;2023-03-31T16:09:13;4.93;;;1.47;;
4595;SDS011;2310;49.978;8.742;2023-03-31T16:13:17;5.53;;;1.40;;
4595;SDS011;2310;49.978;8.742;2023-03-31T16:17:25;2.90;;;1.13;;
4595;SDS011;2310;49.978;8.742;2023-03-31T16:21:32;5.63;;;1.40;;
4595;SDS011;2310;49.978;8.742;2023-03-31T16:25:42;7.23;;;1.80;;
4595;SDS011;2310;49.978;8.742;2023-03-31T16:29:44;6.00;;;1.37;;
4595;SDS011;2310;49.978;8.742;2023-03-31T16:33:51;5.27;;;2.43;;
4595;SDS011;2310;49.978;8.742;2023-03-31T16:37:54;4.57;;;1.40;;
4595;SDS011;2310;49.978;8.742;2023-03-31T16:41:55;5.37;;;1.37;;
4595;SDS011;2310;49.978;8.742;2023-03-31T16:45:57;4.27;;;1.43;;
4595;SDS011;2310;49.978;8.742;2023-03-31T16:50:00;5.97;;;1.70;;
4595;SDS011;2310;49.978;8.742;2023-03-31T16:54:01;6.70;;;1.80;;
4595;SDS011;2310;49.978;8.742;2023-03-31T16:58:02;10.33;;;3.30;;
4595;SDS011;2310;49.978;8.742;2023-03-31T17:02:04;5.90;;;1.90;;
4595;SDS011;2310;49.978;8.742;2023-03-31T17:06:06;7.00;;;1.80;;
4595;SDS011;2310;49.978;8.742;2023-03-31T17:10:10;4.40;;;1.70;;
4595;SDS011;2310;49.978;8.742;2023-03-31T17:14:12;4.97;;;1.97;;
4595;SDS011;2310;49.978;8.742;2023-03-31T17:18:13;7.23;;;2.50;;
4595;SDS011;2310;49.978;8.742;2023-03-31T17:22:16;6.60;;;2.17;;
4595;SDS011;2310;49.978;8.742;2023-03-31T17:26:17;7.20;;;2.00;;
4595;SDS011;2310;49.978;8.742;2023-03-31T17:30:18;4.40;;;2.10;;
4595;SDS011;2310;49.978;8.742;2023-03-31T17:34:20;5.13;;;1.80;;
4595;SDS011;2310;49.978;8.742;2023-03-31T17:38:22;4.77;;;1.93;;
4595;SDS011;2310;49.978;8.742;2023-03-31T17:42:24;5.43;;;2.40;;
4595;SDS011;2310;49.978;8.742;2023-03-31T17:46:27;7.67;;;2.30;;
4595;SDS011;2310;49.978;8.742;2023-03-31T17:50:29;8.63;;;2.10;;
4595;SDS011;2310;49.978;8.742;2023-03-31T17:54:37;7.67;;;2.03;;
4595;SDS011;2310;49.978;8.742;2023-03-31T17:58:37;5.67;;;1.80;;
4595;SDS011;2310;49.978;8.742;2023-03-31T18:02:40;6.43;;;2.00;;
4595;SDS011;2310;49.978;8.742;2023-03-31T18:06:43;6.90;;;2.30;;
4595;SDS011;2310;49.978;8.742;2023-03-31T18:10:47;5.33;;;1.53;;
4595;SDS011;2310;49.978;8.742;2023-03-31T18:14:49;5.43;;;1.83;;
4595;SDS011;2310;49.978;8.742;2023-03-31T18:18:52;5.03;;;1.93;;
4595;SDS011;2310;49.978;8.742;2023-03-31T18:22:54;7.70;;;2.70;;
4595;SDS011;2310;49.978;8.742;2023-03-31T18:26:56;5.33;;;1.90;;
4595;SDS011;2310;49.978;8.742;2023-03-31T18:31:01;4.53;;;1.90;;
4595;SDS011;2310;49.978;8.742;2023-03-31T18:35:05;6.20;;;2.23;;
4595;SDS011;2310;49.978;8.742;2023-03-31T18:39:07;8.00;;;2.57;;
4595;SDS011;2310;49.978;8.742;2023-03-31T18:43:09;3.87;;;1.60;;
4595;SDS011;2310;49.978;8.742;2023-03-31T18:47:11;5.37;;;2.00;;
4595;SDS011;2310;49.978;8.742;2023-03-31T18:51:13;4.87;;;1.60;;
4595;SDS011;2310;49.978;8.742;2023-03-31T18:55:15;5.60;;;1.70;;
4595;SDS011;2310;49.978;8.742;2023-03-31T18:59:17;5.33;;;1.42;;
4595;SDS011;2310;49.978;8.742;2023-03-31T19:03:18;3.73;;;1.33;;
4595;SDS011;2310;49.978;8.742;2023-03-31T19:07:20;3.70;;;1.73;;
4595;SDS011;2310;49.978;8.742;2023-03-31T19:11:21;2.70;;;1.13;;
4595;SDS011;2310;49.978;8.742;2023-03-31T19:15:23;9.20;;;1.50;;
4595;SDS011;2310;49.978;8.742;2023-03-31T19:19:26;3.97;;;1.43;;
4595;SDS011;2310;49.978;8.742;2023-03-31T19:23:28;3.77;;;1.77;;
4595;SDS011;2310;49.978;8.742;2023-03-31T19:27:30;5.83;;;1.50;;
4595;SDS011;2310;49.978;8.742;2023-03-31T19:31:32;15.73;;;1.97;;
4595;SDS011;2310;49.978;8.742;2023-03-31T19:35:36;5.33;;;1.40;;
4595;SDS011;2310;49.978;8.742;2023-03-31T19:39:40;6.73;;;2.13;;
4595;SDS011;2310;49.978;8.742;2023-03-31T19:43:42;5.40;;;1.93;;
4595;SDS011;2310;49.978;8.742;2023-03-31T19:47:43;5.77;;;1.70;;
4595;SDS011;2310;49.978;8.742;2023-03-31T19:51:45;3.93;;;1.67;;
4595;SDS011;2310;49.978;8.742;2023-03-31T19:55:53;4.70;;;1.50;;
4595;SDS011;2310;49.978;8.742;2023-03-31T19:59:56;4.00;;;1.47;;
4595;SDS011;2310;49.978;8.742;2023-03-31T20:04:03;6.07;;;1.60;;
4595;SDS011;2310;49.978;8.742;2023-03-31T20:08:05;6.87;;;1.83;;
4595;SDS011;2310;49.978;8.742;2023-03-31T20:12:06;5.07;;;1.20;;
4595;SDS011;2310;49.978;8.742;2023-03-31T20:16:08;5.40;;;1.47;;
4595;SDS011;2310;49.978;8.742;2023-03-31T20:20:11;4.40;;;1.60;;
4595;SDS011;2310;49.978;8.742;2023-03-31T20:24:17;4.10;;;1.30;;
4595;SDS011;2310;49.978;8.742;2023-03-31T20:28:17;4.20;;;1.70;;
4595;SDS011;2310;49.978;8.742;2023-03-31T20:32:19;9.00;;;1.90;;
4595;SDS011;2310;49.978;8.742;2023-03-31T20:36:21;6.43;;;2.03;;
4595;SDS011;2310;49.978;8.742;2023-03-31T20:40:24;7.70;;;2.43;;
4595;SDS011;2310;49.978;8.742;2023-03-31T20:44:25;4.20;;;1.20;;
4595;SDS011;2310;49.978;8.742;2023-03-31T20:48:30;6.10;;;1.83;;
4595;SDS011;2310;49.978;8.742;2023-03-31T20:52:41;3.67;;;1.10;;
4595;SDS011;2310;49.978;8.742;2023-03-31T20:56:44;5.10;;;1.80;;
4595;SDS011;2310;49.978;8.742;2023-03-31T21:00:46;5.20;;;1.40;;
4595;SDS011;2310;49.978;8.742;2023-03-31T21:04:48;7.10;;;1.73;;
4595;SDS011;2310;49.978;8.742;2023-03-31T21:08:51;3.50;;;1.73;;
4595;SDS011;2310;49.978;8.742;2023-03-31T21:12:54;5.73;;;1.37;;
4595;SDS011;2310;49.978;8.742;2023-03-31T21:16:55;5.23;;;1.70;;
4595;SDS011;2310;49.978;8.742;2023-03-31T21:20:57;3.73;;;1.30;;
4595;SDS011;2310;49.978;8.742;2023-03-31T21:25:01;6.40;;;1.40;;
4595;SDS011;2310;49.978;8.742;2023-03-31T21:29:02;6.47;;;2.10;;
4595;SDS011;2310;49.978;8.742;2023-03-31T21:33:03;4.77;;;1.80;;
4595;SDS011;2310;49.978;8.742;2023-03-31T21:37:05;3.30;;;1.20;;
4595;SDS011;2310;49.978;8.742;2023-03-31T21:41:09;4.73;;;1.57;;
4595;SDS011;2310;49.978;8.742;2023-03-31T21:45:13;6.43;;;1.57;;
4595;SDS011;2310;49.978;8.742;2023-03-31T21:49:14;5.77;;;2.13;;
4595;SDS011;2310;49.978;8.742;2023-03-31T21:53:18;4.03;;;1.73;;
4595;SDS011;2310;49.978;8.742;2023-03-31T21:57:19;7.77;;;2.50;;
4595;SDS011;2310;49.978;8.742;2023-03-31T22:01:21;3.63;;;1.60;;
4595;SDS011;2310;49.978;8.742;2023-03-31T22:05:23;3.80;;;1.90;;
4595;SDS011;2310;49.978;8.742;2023-03-31T22:09:24;4.00;;;1.53;;
4595;SDS011;2310;49.978;8.742;2023-03-31T22:13:27;4.27;;;1.20;;
4595;SDS011;2310;49.978;8.742;2023-03-31T22:17:29;4.93;;;1.63;;
4595;SDS011;2310;49.978;8.742;2023-03-31T22:21:30;4.00;;;1.37;;
4595;SDS011;2310;49.978;8.742;2023-03-31T22:25:31;3.30;;;2.10;;
4595;SDS011;2310;49.978;8.742;2023-03-31T22:29:34;5.00;;;1.20;;
4595;SDS011;2310;49.978;8.742;2023-03-31T22:33:35;3.77;;;1.20;;
4595;SDS011;2310;49.978;8.742;2023-03-31T22:37:36;3.63;;;1.53;;
4595;SDS011;2310;49.978;8.742;2023-03-31T22:41:37;4.37;;;1.60;;
4595;SDS011;2310;49.978;8.742;2023-03-31T22:45:38;4.37;;;1.73;;
4595;SDS011;2310;49.978;8.742;2023-03-31T22:49:40;4.17;;;1.60;;
4595;SDS011;2310;49.978;8.742;2023-03-31T22:53:41;3.90;;;1.43;;
4595;SDS011;2310;49.978;8.742;2023-03-31T22:57:42;4.53;;;1.50;;
4595;SDS011;2310;49.978;8.742;2023-03-31T23:01:44;4.83;;;1.90;;
4595;SDS011;2310;49.978;8.742;2023-03-31T23:05:46;5.67;;;2.13;;
4595;SDS011;2310;49.978;8.742;2023-03-31T23:09:47;4.70;;;2.07;;
4595;SDS011;2310;49.978;8.742;2023-03-31T23:13:49;4.73;;;2.07;;
4595;SDS011;2310;49.978;8.742;2023-03-31T23:17:51;7.80;;;2.10;;
4595;SDS011;2310;49.978;8.742;2023-03-31T23:21:52;5.27;;;2.53;;
4595;SDS011;2310;49.978;8.742;2023-03-31T23:25:53;3.33;;;1.77;;
4595;SDS011;2310;49.978;8.742;2023-03-31T23:29:54;4.10;;;1.87;;
4595;SDS011;2310;49.978;8.742;2023-03-31T23:33:56;4.90;;;1.90;;
4595;SDS011;2310;49.978;8.742;2023-03-31T23:37:58;4.70;;;1.90;;
4595;SDS011;2310;49.978;8.742;2023-03-31T23:42:00;6.73;;;2.17;;
4595;SDS011;2310;49.978;8.742;2023-03-31T23:46:01;4.13;;;2.17;;
4595;SDS011;2310;49.978;8.742;2023-03-31T23:50:05;5.13;;;1.83;;
4595;SDS011;2310;49.978;8.742;2023-03-31T23:54:07;6.80;;;2.50;;
4595;SDS011;2310;49.978;8.742;2023-03-31T23:58:08;5.20;;;1.80;;
